KTPA/TPA METAR and TAF weather

Enter ICAO airport designator
Station Type Date Time Source
KTPA METAR 2021/09/16 09:53 UTC NOAA

KTPA 160953Z 11005KT 10SM SCT250 26/23 A2991 RMK AO2 SLP129 T02560228


Station Type Date Time Source
KTPA Decoded METAR 2021/09/16 09:53 UTC NOAA

TAMPA INTERNATIONAL AIRPORT , FL, United States (KTPA) 27-58N 082-32W 11M
Sep 16, 2021 - 05:53 AM EDT / 2021.09.16 0953 UTC
Wind: from the ESE (110 degrees) at 6 MPH (5 KT):0
Visibility: 10 mile(s):0
Sky conditions: partly cloudy
Temperature: 78.1 F (25.6 C)
Dew Point: 73.0 F (22.8 C)
Relative Humidity: 84%
Pressure (altimeter): 29.91 in. Hg (1012 hPa)
ob: KTPA 160953Z 11005KT 10SM SCT250 26/23 A2991 RMK AO2 SLP129 T02560228
cycle: 10

Station Type Date Time Source
KTPA TAF 2021/09/16 09:04 UTC NOAA

TAF
AMD KTPA 160902Z 1609/1712 VRB03KT P6SM FEW035 SCT080 SCT250
FM161200 14005KT P6SM VCSH SCT035 BKN090 BKN250
FM161500 19006KT P6SM VCSH SCT025 BKN050 BKN100
FM161800 24007KT 6SM SHRA VCTS SCT020 BKN040CB
FM170100 VRB03KT P6SM SHRA SCT020 BKN040
FM170600 VRB03KT P6SM VCSH SCT035 BKN100

Example: see airport list